createdAt,value
2019-04-16T00:00:42.420Z,10.7
2019-04-16T00:10:46.751Z,10.7
2019-04-16T00:20:50.197Z,10.3
2019-04-16T00:30:53.641Z,10.5
2019-04-16T00:41:00.699Z,10.3
2019-04-16T00:51:05.630Z,10
2019-04-16T01:01:09.364Z,9.8
2019-04-16T01:11:12.793Z,9.9
2019-04-16T01:21:16.240Z,9.7
2019-04-16T01:31:19.675Z,9.7
2019-04-16T01:41:23.113Z,9.6
2019-04-16T01:51:26.527Z,9.4
2019-04-16T02:01:29.952Z,9.5
2019-04-16T02:11:33.391Z,9.4
2019-04-16T02:21:38.936Z,9.1
2019-04-16T02:31:47.825Z,9
2019-04-16T02:41:58.047Z,8.9
2019-04-16T02:52:02.139Z,8.8
2019-04-16T03:02:05.640Z,8.8
2019-04-16T03:12:09.139Z,8.6
2019-04-16T03:22:12.586Z,8.6
2019-04-16T03:32:16.228Z,8.5
2019-04-16T03:42:20.071Z,8.3
2019-04-16T03:52:23.629Z,8.2
2019-04-16T04:02:27.059Z,8.2
2019-04-16T04:12:30.516Z,8.1
2019-04-16T04:22:33.979Z,7.9
2019-04-16T04:32:37.430Z,7.8
2019-04-16T04:42:40.862Z,8
2019-04-16T04:52:45.963Z,7.9
2019-04-16T05:02:50.348Z,7.8
2019-04-16T05:12:53.862Z,7.8
2019-04-16T05:22:58.049Z,7.9
2019-04-16T05:33:04.844Z,7.8
2019-04-16T05:43:09.631Z,7.9
2019-04-16T05:53:13.676Z,8.1
2019-04-16T06:03:20.536Z,8.2
2019-04-16T06:13:26.029Z,8.7
2019-04-16T06:23:32.593Z,9
2019-04-16T06:33:36.200Z,9.3
2019-04-16T06:43:39.602Z,10.8
2019-04-16T06:53:43.010Z,10.1
2019-04-16T07:03:46.469Z,10.3
2019-04-16T07:13:49.929Z,10.6
2019-04-16T07:23:56.597Z,10.9
2019-04-16T07:34:02.360Z,11.2
2019-04-16T07:44:10.364Z,11.6
2019-04-16T07:54:14.767Z,12.1
2019-04-16T08:04:25.611Z,12.2
2019-04-16T08:14:39.630Z,12.6
2019-04-16T08:24:43.111Z,13
2019-04-16T08:34:46.556Z,13.3
2019-04-16T08:44:50.077Z,13.7
2019-04-16T08:54:54.931Z,13.8
2019-04-16T09:04:58.762Z,14.3
2019-04-16T09:15:02.278Z,14.6
2019-04-16T09:25:05.737Z,14.7
2019-04-16T09:35:11.119Z,14.5
2019-04-16T09:45:24.802Z,14.7
2019-04-16T09:55:28.830Z,14.9
2019-04-16T10:05:32.263Z,15.5
2019-04-16T10:15:35.666Z,15.4
2019-04-16T10:25:39.225Z,15.8
2019-04-16T10:35:42.682Z,16.1
2019-04-16T10:45:46.161Z,16.2
2019-04-16T10:55:49.678Z,16.6
2019-04-16T11:05:56.715Z,17.1
2019-04-16T11:16:01.257Z,17
2019-04-16T11:26:04.824Z,17.1
2019-04-16T11:36:18.132Z,17.2
2019-04-16T11:46:24.647Z,17.7
2019-04-16T11:56:28.140Z,17.7
2019-04-16T12:06:31.652Z,17.8
2019-04-16T12:16:35.283Z,17.8
2019-04-16T12:26:38.924Z,17.7
2019-04-16T12:36:42.517Z,17.7
2019-04-16T12:46:46.223Z,17.8
2019-04-16T12:56:49.754Z,17.8
2019-04-16T13:06:53.364Z,17.8
2019-04-16T13:16:56.809Z,17.8
2019-04-16T13:27:00.325Z,17.8
2019-04-16T13:37:04.157Z,17.8
2019-04-16T13:47:07.616Z,17.8
2019-04-16T13:57:11.311Z,17.8
2019-04-16T14:07:14.783Z,17.8
2019-04-16T14:17:18.597Z,17.8
2019-04-16T14:27:22.093Z,17.8
2019-04-16T14:37:25.524Z,17.8
2019-04-16T14:47:29.793Z,17.8
2019-04-16T14:57:42.474Z,17.7
2019-04-16T15:07:46.556Z,17.8
2019-04-16T15:17:50.005Z,17.7
2019-04-16T15:27:53.500Z,17.7
2019-04-16T15:37:57.636Z,17.6
2019-04-16T15:48:02.684Z,17.6
2019-04-16T15:58:07.670Z,17.5
2019-04-16T16:08:13.175Z,17.4
2019-04-16T16:18:16.594Z,17.4
2019-04-16T16:28:20.043Z,17.3
2019-04-16T16:38:23.492Z,17.2
2019-04-16T16:48:26.930Z,17.2
2019-04-16T16:58:30.381Z,17.1
2019-04-16T17:08:33.798Z,17
2019-04-16T17:18:37.202Z,16.9
2019-04-16T17:28:43.332Z,16.8
2019-04-16T17:38:47.608Z,16.7
2019-04-16T17:48:51.053Z,16.6
2019-04-16T17:58:54.493Z,16.5
2019-04-16T18:08:58.286Z,16.2
2019-04-16T18:19:02.008Z,16
2019-04-16T18:29:05.992Z,15.9
2019-04-16T18:39:09.672Z,15.8
2019-04-16T18:49:14.191Z,15.6
2019-04-16T18:59:21.481Z,15.5
2019-04-16T19:09:24.953Z,15.4
2019-04-16T19:19:28.437Z,15.2
2019-04-16T19:29:31.883Z,15.1
2019-04-16T19:39:35.309Z,15
2019-04-16T19:49:38.734Z,14.8
2019-04-16T19:59:46.327Z,14.7
2019-04-16T20:09:50.791Z,14.7
2019-04-16T20:19:54.255Z,14.5
2019-04-16T20:29:57.667Z,14.6
2019-04-16T20:40:01.089Z,14.4
2019-04-16T20:50:04.960Z,14.2
2019-04-16T21:00:10.827Z,14.2
2019-04-16T21:10:15.133Z,14.1
2019-04-16T21:20:20.200Z,14
2019-04-16T21:30:24.014Z,13.9
2019-04-16T21:40:27.464Z,13.9
2019-04-16T21:50:30.923Z,13.8
2019-04-16T22:00:34.363Z,13.7
2019-04-16T22:10:37.801Z,13.6
2019-04-16T22:20:41.240Z,13.5
2019-04-16T22:30:44.677Z,13.4
2019-04-16T22:40:48.105Z,13.4
2019-04-16T22:50:51.544Z,13.3
2019-04-16T23:00:54.996Z,13.2
2019-04-16T23:10:58.546Z,13.3
2019-04-16T23:21:01.991Z,13.1
2019-04-16T23:31:05.558Z,13
2019-04-16T23:41:09.189Z,12.9
2019-04-16T23:51:15.722Z,12.9
